Time;durP1;ratioP1;P1;durP2;ratioP2;P2;SDS_P1;SDS_P2;PMS_P1;PMS_P2;Temp;Humidity;BMP_temperature;BMP_pressure;BME280_temperature;BME280_humidity;BME280_pressure;Samples;Min_cycle;Max_cycle;Signal;HPM_P1;HPM_P2
2022/05/27 00:01:08;;;;;;;;;3.00;2.00;;;;;-143.39;100.00;63593.47;4827559;29;45334;-78
2022/05/27 00:03:36;;;;;;;;;1.00;1.00;;;;;-143.39;100.00;63593.47;4828901;29;45431;-78
2022/05/27 00:06:04;;;;;;;;;1.75;1.75;;;;;-143.39;100.00;63593.47;4827685;29;45282;-79
2022/05/27 00:08:35;;;;;;;;;2.00;2.00;;;;;-143.39;100.00;63593.47;4827633;29;47307;-78
2022/05/27 00:11:04;;;;;;;;;2.00;1.50;;;;;-143.39;100.00;63593.47;4828965;29;45254;-78
2022/05/27 00:13:30;;;;;;;;;1.00;1.00;;;;;-143.39;100.00;63593.47;4829186;29;45343;-78
2022/05/27 00:15:55;;;;;;;;;1.00;1.00;;;;;-143.39;100.00;63593.47;4828980;29;45250;-78
2022/05/27 00:18:21;;;;;;;;;2.75;1.25;;;;;-143.39;100.00;63593.47;4827439;29;46910;-78
2022/05/27 00:20:49;;;;;;;;;1.00;1.00;;;;;-143.39;100.00;63593.47;4827334;29;45488;-78
2022/05/27 00:23:20;;;;;;;;;1.75;1.00;;;;;-143.39;100.00;63593.47;4829056;29;45353;-78
2022/05/27 00:25:48;;;;;;;;;1.00;1.00;;;;;-143.39;100.00;63593.47;4827275;29;45551;-79
2022/05/27 00:28:18;;;;;;;;;1.50;1.00;;;;;-143.39;100.00;63593.47;4828843;29;45491;-78
2022/05/27 00:30:47;;;;;;;;;2.50;2.00;;;;;-143.39;100.00;63593.47;4827331;29;45281;-78
2022/05/27 00:33:14;;;;;;;;;5.00;3.50;;;;;-143.39;100.00;63593.47;4821940;29;45412;-78
2022/05/27 00:35:42;;;;;;;;;3.25;3.00;;;;;-143.39;100.00;63593.47;4828413;29;45420;-78
2022/05/27 00:38:16;;;;;;;;;1.25;1.25;;;;;-143.39;100.00;63593.47;4826547;29;47989;-78
2022/05/27 00:40:45;;;;;;;;;1.25;1.25;;;;;-143.39;100.00;63593.47;4828700;29;45238;-78
2022/05/27 00:43:10;;;;;;;;;4.00;2.25;;;;;-143.39;100.00;63593.47;4827390;29;45289;-78
2022/05/27 00:45:42;;;;;;;;;1.50;1.00;;;;;-143.39;100.00;63593.47;4828623;29;45514;-78
2022/05/27 00:48:13;;;;;;;;;0.25;0.25;;;;;-143.39;100.00;63593.47;4828291;29;46253;-78
2022/05/27 00:50:44;;;;;;;;;2.75;1.50;;;;;-143.39;100.00;63593.47;4828382;29;45479;-78
2022/05/27 00:53:11;;;;;;;;;3.00;2.00;;;;;-143.39;100.00;63593.47;4828566;29;45234;-78
2022/05/27 00:55:46;;;;;;;;;0.00;0.00;;;;;-143.39;100.00;63593.47;4828514;29;45513;-78
2022/05/27 00:58:19;;;;;;;;;4.00;1.75;;;;;-143.39;100.00;63593.47;4828242;29;45385;-78
2022/05/27 01:00:47;;;;;;;;;2.50;0.00;;;;;-143.39;100.00;63593.47;4828473;29;45472;-78
2022/05/27 01:03:15;;;;;;;;;0.25;0.25;;;;;-143.39;100.00;63593.47;4827020;29;45562;-78
2022/05/27 01:05:44;;;;;;;;;1.50;1.00;;;;;-143.39;100.00;63593.47;4826738;29;45582;-78
2022/05/27 01:08:15;;;;;;;;;3.00;1.00;;;;;-143.39;100.00;63593.47;4828321;29;45439;-78
2022/05/27 01:11:12;;;;;;;;;2.00;1.00;;;;;-143.39;100.00;63593.47;4828269;29;45259;-78
2022/05/27 01:13:59;;;;;;;;;1.00;1.00;;;;;-143.39;100.00;63593.47;4827041;29;45199;-78
2022/05/27 01:16:38;;;;;;;;;1.00;1.00;;;;;-143.39;100.00;63593.47;4818471;29;45329;-78
2022/05/27 01:22:56;;;;;;;;;2.50;1.75;;;;;-143.39;100.00;63593.47;4828058;29;45383;-78
2022/05/27 01:25:54;;;;;;;;;0.50;0.50;;;;;-143.39;100.00;63593.47;4818136;29;45379;-78
2022/05/27 01:28:24;;;;;;;;;2.25;1.00;;;;;-143.39;100.00;63593.47;4779176;29;45517;-78
2022/05/27 01:31:25;;;;;;;;;1.00;1.00;;;;;-143.39;100.00;63593.47;4826757;29;48211;-78
2022/05/27 01:33:58;;;;;;;;;2.00;2.00;;;;;-143.39;100.00;63593.47;4824722;29;45831;-78
2022/05/27 01:36:32;;;;;;;;;0.50;0.50;;;;;-143.39;100.00;63593.47;4828148;29;45271;-78
2022/05/27 01:39:22;;;;;;;;;1.00;1.00;;;;;-143.39;100.00;63593.47;4827947;29;45571;-78
2022/05/27 01:41:57;;;;;;;;;2.50;1.75;;;;;-143.39;100.00;63593.47;4827801;29;46550;-78
2022/05/27 01:44:52;;;;;;;;;5.75;2.00;;;;;-143.39;100.00;63593.47;4828070;29;45411;-78
2022/05/27 01:47:35;;;;;;;;;0.50;0.50;;;;;-143.39;100.00;63593.47;4828258;29;45242;-78
2022/05/27 01:50:16;;;;;;;;;2.50;2.00;;;;;-143.39;100.00;63593.47;4829067;29;45389;-78
2022/05/27 01:52:52;;;;;;;;;1.25;1.25;;;;;-143.39;100.00;63593.47;4830730;29;45498;-78
2022/05/27 01:55:27;;;;;;;;;2.75;1.00;;;;;-143.39;100.00;63593.47;4830925;29;45634;-78
2022/05/27 01:58:11;;;;;;;;;1.00;1.00;;;;;-143.39;100.00;63593.47;4829441;29;45499;-78
2022/05/27 02:00:41;;;;;;;;;1.00;1.00;;;;;-143.39;100.00;63593.47;4829500;29;45336;-78
2022/05/27 02:03:30;;;;;;;;;4.00;1.00;;;;;-143.39;100.00;63593.47;4829238;29;48391;-78
2022/05/27 02:06:14;;;;;;;;;1.00;1.00;;;;;-143.39;100.00;63593.47;4829929;29;45249;-78
2022/05/27 02:08:52;;;;;;;;;2.50;0.25;;;;;-143.39;100.00;63593.47;4829505;29;45389;-78
2022/05/27 02:11:20;;;;;;;;;3.00;2.00;;;;;-143.39;100.00;63593.47;4830744;29;45353;-78
2022/05/27 02:13:59;;;;;;;;;5.50;2.00;;;;;-143.39;100.00;63593.47;4830425;29;45292;-78
2022/05/27 02:16:35;;;;;;;;;5.25;2.00;;;;;-143.39;100.00;63593.47;4830631;29;45197;-78
2022/05/27 02:19:07;;;;;;;;;1.75;1.75;;;;;-143.39;100.00;63593.47;4830416;29;45425;-78
2022/05/27 02:21:41;;;;;;;;;3.25;2.75;;;;;-143.39;100.00;63593.47;4830773;29;45435;-78
2022/05/27 02:24:25;;;;;;;;;2.00;0.75;;;;;-143.39;100.00;63593.47;4830387;29;45303;-78
2022/05/27 02:27:02;;;;;;;;;2.00;1.50;;;;;-143.39;100.00;63593.47;4829037;29;45677;-78
2022/05/27 02:29:30;;;;;;;;;2.00;2.00;;;;;-143.39;100.00;63593.47;4830603;29;45326;-78
2022/05/27 02:32:04;;;;;;;;;1.25;1.00;;;;;-143.39;100.00;63593.47;4835926;29;45361;-78
2022/05/27 02:37:28;;;;;;;;;3.25;3.25;;;;;-143.39;100.00;63593.47;4830276;29;45468;-78
2022/05/27 02:39:57;;;;;;;;;5.50;1.00;;;;;-143.39;100.00;63593.47;4828978;29;45357;-78
2022/05/27 02:42:44;;;;;;;;;3.75;2.00;;;;;-143.39;100.00;63593.47;4817661;29;45540;-78
2022/05/27 02:45:17;;;;;;;;;2.25;2.25;;;;;-143.39;100.00;63593.47;4830133;29;46230;-78
2022/05/27 02:47:52;;;;;;;;;2.75;1.75;;;;;-143.39;100.00;63593.47;4828474;29;46110;-77
2022/05/27 02:50:31;;;;;;;;;6.00;2.25;;;;;-143.39;100.00;63593.47;4830106;29;45288;-78
2022/05/27 02:53:05;;;;;;;;;4.00;1.00;;;;;-143.39;100.00;63593.47;4828710;29;45459;-78
2022/05/27 02:55:44;;;;;;;;;2.50;2.00;;;;;-143.39;100.00;63593.47;4830003;29;46242;-78
2022/05/27 02:58:12;;;;;;;;;2.75;2.00;;;;;-143.39;100.00;63593.47;4829659;29;45393;-78
2022/05/27 03:00:40;;;;;;;;;5.50;2.00;;;;;-143.39;100.00;63593.47;4829656;29;45200;-78
2022/05/27 03:03:08;;;;;;;;;5.00;3.00;;;;;-143.39;100.00;63593.47;4829732;29;45565;-78
2022/05/27 03:06:15;;;;;;;;;3.00;1.50;;;;;-143.39;100.00;63593.47;4829701;29;46369;-78
2022/05/27 03:09:04;;;;;;;;;1.50;1.50;;;;;-143.39;100.00;63593.47;4829923;29;45542;-78
2022/05/27 03:11:52;;;;;;;;;2.00;2.00;;;;;-143.39;100.00;63593.47;4828733;29;45203;-78
2022/05/27 03:14:19;;;;;;;;;2.00;1.75;;;;;-143.39;100.00;63593.47;4828247;29;45552;-78
2022/05/27 03:17:02;;;;;;;;;3.00;2.00;;;;;-143.39;100.00;63593.47;4829774;29;45466;-78
2022/05/27 03:19:53;;;;;;;;;2.00;2.00;;;;;-143.39;100.00;63593.47;4829468;29;45572;-78
2022/05/27 03:23:06;;;;;;;;;2.00;2.00;;;;;-143.39;100.00;63593.47;4828508;29;45434;-78
2022/05/27 03:25:48;;;;;;;;;2.00;2.00;;;;;-143.39;100.00;63593.47;4789194;29;45618;-78
2022/05/27 03:28:28;;;;;;;;;2.00;2.00;;;;;-143.39;100.00;63593.47;4841795;29;45342;-78
2022/05/27 03:31:05;;;;;;;;;2.00;2.00;;;;;-143.39;100.00;63593.47;4830498;29;45520;-78
2022/05/27 03:33:35;;;;;;;;;2.75;1.75;;;;;-143.39;100.00;63593.47;4843341;29;45407;-78
2022/05/27 03:36:22;;;;;;;;;2.00;2.00;;;;;-143.39;100.00;63593.47;4829764;29;45407;-78
2022/05/27 03:39:07;;;;;;;;;3.25;2.00;;;;;-143.39;100.00;63593.47;4829438;29;45175;-78
2022/05/27 03:41:36;;;;;;;;;7.00;5.50;;;;;-143.39;100.00;63593.47;4829402;29;45194;-78
2022/05/27 03:44:02;;;;;;;;;3.00;2.00;;;;;-143.39;100.00;63593.47;4829559;29;45465;-78
2022/05/27 03:46:37;;;;;;;;;2.00;2.00;;;;;-143.39;100.00;63593.47;4827855;29;45545;-78
2022/05/27 03:49:05;;;;;;;;;1.25;1.00;;;;;-143.39;100.00;63593.47;4828587;29;46265;-78
2022/05/27 03:51:47;;;;;;;;;4.00;3.00;;;;;-143.39;100.00;63593.47;4829122;29;45604;-78
2022/05/27 03:54:14;;;;;;;;;3.25;3.25;;;;;-143.39;100.00;63593.47;4829385;29;45357;-78
2022/05/27 03:56:41;;;;;;;;;6.50;6.00;;;;;-143.39;100.00;63593.47;4827594;29;45450;-78
2022/05/27 03:59:12;;;;;;;;;4.50;4.50;;;;;-143.39;100.00;63593.47;4828790;29;45421;-79
2022/05/27 04:01:44;;;;;;;;;4.00;4.00;;;;;-143.39;100.00;63593.47;4827797;29;45511;-79
2022/05/27 04:04:16;;;;;;;;;5.25;3.50;;;;;-143.39;100.00;63593.47;4828636;29;45289;-78
2022/05/27 04:06:42;;;;;;;;;4.00;4.00;;;;;-143.39;100.00;63593.47;4829029;29;45267;-78
2022/05/27 04:09:08;;;;;;;;;5.00;3.00;;;;;-143.39;100.00;63593.47;4827471;29;48051;-78
2022/05/27 04:11:34;;;;;;;;;4.00;4.00;;;;;-143.39;100.00;63593.47;4828228;29;45363;-78
2022/05/27 04:13:59;;;;;;;;;3.75;3.00;;;;;-143.39;100.00;63593.47;4827389;29;45253;-79
2022/05/27 04:16:25;;;;;;;;;8.25;5.75;;;;;-143.39;100.00;63593.47;4829050;29;45517;-79
2022/05/27 04:18:51;;;;;;;;;8.00;6.75;;;;;-143.39;100.00;63593.47;4827133;29;47123;-79
2022/05/27 04:21:20;;;;;;;;;6.75;5.50;;;;;-143.39;100.00;63593.47;4827479;29;45489;-79
2022/05/27 04:23:45;;;;;;;;;7.00;4.00;;;;;-143.39;100.00;63593.47;4828831;29;45453;-79
2022/05/27 04:26:11;;;;;;;;;7.25;3.50;;;;;-143.39;100.00;63593.47;4827171;29;45614;-79
2022/05/27 04:28:37;;;;;;;;;4.00;4.00;;;;;-143.39;100.00;63593.47;4827280;29;47988;-79
2022/05/27 04:31:03;;;;;;;;;6.75;6.00;;;;;-143.39;100.00;63593.47;4829621;29;45713;-79
2022/05/27 04:33:30;;;;;;;;;5.75;5.00;;;;;-143.39;100.00;63593.47;4832046;29;45253;-79
2022/05/27 04:35:59;;;;;;;;;9.50;7.00;;;;;-143.39;100.00;63593.47;4827374;29;45264;-79
2022/05/27 04:38:25;;;;;;;;;7.00;4.75;;;;;-143.39;100.00;63593.47;4828289;29;45431;-78
2022/05/27 04:40:51;;;;;;;;;13.25;6.25;;;;;-143.39;100.00;63593.47;4828710;29;45411;-78
2022/05/27 04:43:17;;;;;;;;;7.00;6.50;;;;;-143.39;100.00;63593.47;4828530;29;45154;-78
2022/05/27 04:45:43;;;;;;;;;7.50;5.50;;;;;-143.39;100.00;63593.47;4828374;29;45437;-78
2022/05/27 04:48:10;;;;;;;;;5.75;5.50;;;;;-143.39;100.00;63593.47;4827993;29;45356;-78
2022/05/27 04:50:36;;;;;;;;;9.50;7.25;;;;;-143.39;100.00;63593.47;4828499;29;45742;-78
2022/05/27 04:53:03;;;;;;;;;9.00;7.00;;;;;-143.39;100.00;63593.47;4828365;29;45377;-78
2022/05/27 04:55:31;;;;;;;;;7.25;6.25;;;;;-143.39;100.00;63593.47;4828368;29;45317;-78
2022/05/27 04:57:57;;;;;;;;;10.25;7.25;;;;;-143.39;100.00;63593.47;4826709;29;46398;-79
2022/05/27 05:00:26;;;;;;;;;11.00;8.50;;;;;-143.39;100.00;63593.47;4827132;29;45278;-79
2022/05/27 05:02:52;;;;;;;;;9.75;7.00;;;;;-143.39;100.00;63593.47;4828129;29;45369;-79
2022/05/27 05:05:20;;;;;;;;;10.75;7.00;;;;;-143.39;100.00;63593.47;4828251;29;45275;-79
2022/05/27 05:07:52;;;;;;;;;5.50;4.75;;;;;-143.39;100.00;63593.47;4826490;29;45983;-79
2022/05/27 05:10:21;;;;;;;;;7.00;5.75;;;;;-143.39;100.00;63593.47;4828292;29;45456;-79
2022/05/27 05:12:49;;;;;;;;;8.00;5.75;;;;;-143.39;100.00;63593.47;4826756;29;45247;-79
2022/05/27 05:15:15;;;;;;;;;7.75;6.25;;;;;-143.39;100.00;63593.47;4828240;29;45237;-79
2022/05/27 05:17:42;;;;;;;;;6.50;5.25;;;;;-143.39;100.00;63593.47;4828094;29;45421;-79
2022/05/27 05:20:12;;;;;;;;;9.00;7.25;;;;;-143.39;100.00;63593.47;4827966;29;45471;-79
2022/05/27 05:22:37;;;;;;;;;8.00;7.75;;;;;-143.39;100.00;63593.47;4828337;29;45251;-79
2022/05/27 05:25:03;;;;;;;;;10.00;6.50;;;;;-143.39;100.00;63593.47;4831221;29;45243;-79
2022/05/27 05:27:31;;;;;;;;;10.50;8.00;;;;;-143.39;100.00;63593.47;4829519;29;46222;-79
2022/05/27 05:29:57;;;;;;;;;10.75;7.25;;;;;-143.39;100.00;63593.47;4831188;29;45544;-78
2022/05/27 05:32:26;;;;;;;;;8.75;6.00;;;;;-143.39;100.00;63593.47;4836991;29;45503;-79
2022/05/27 05:34:53;;;;;;;;;10.75;8.25;;;;;-143.39;100.00;63593.47;4830899;29;45244;-79
2022/05/27 05:37:18;;;;;;;;;11.25;8.00;;;;;-143.39;100.00;63593.47;4830954;29;45357;-78
2022/05/27 05:39:44;;;;;;;;;15.00;9.00;;;;;-143.39;100.00;63593.47;4829547;29;45331;-79
2022/05/27 05:42:10;;;;;;;;;14.00;9.50;;;;;-143.39;100.00;63593.47;4831223;29;45470;-79
2022/05/27 05:44:35;;;;;;;;;11.75;11.00;;;;;-143.39;100.00;63593.47;4831049;29;45263;-79
2022/05/27 05:47:02;;;;;;;;;13.50;9.50;;;;;-143.39;100.00;63593.47;4829424;29;47109;-78
2022/05/27 05:49:28;;;;;;;;;17.25;11.00;;;;;-143.39;100.00;63593.47;4830531;29;45413;-78
2022/05/27 05:51:57;;;;;;;;;16.75;10.00;;;;;-143.39;100.00;63593.47;4830899;29;45381;-78
2022/05/27 05:54:24;;;;;;;;;13.75;10.25;;;;;-143.39;100.00;63593.47;4830700;29;45242;-79
2022/05/27 05:56:50;;;;;;;;;14.75;10.25;;;;;-143.39;100.00;63593.47;4830632;29;45299;-78
2022/05/27 05:59:17;;;;;;;;;11.75;10.00;;;;;-143.39;100.00;63593.47;4830913;29;46759;-79
2022/05/27 06:01:44;;;;;;;;;16.25;10.25;;;;;-143.39;100.00;63593.47;4829528;29;45431;-78
2022/05/27 06:04:10;;;;;;;;;10.50;9.75;;;;;-143.39;100.00;63593.47;4830436;29;45536;-79
2022/05/27 06:06:37;;;;;;;;;13.25;8.75;;;;;-143.39;100.00;63593.47;4829229;29;47282;-78
2022/05/27 06:09:08;;;;;;;;;15.00;11.00;;;;;-143.39;100.00;63593.47;4830686;29;45176;-78
2022/05/27 06:11:38;;;;;;;;;15.50;12.00;;;;;-143.39;100.00;63593.47;4830889;29;45340;-79
2022/05/27 06:14:04;;;;;;;;;11.00;9.25;;;;;-143.39;100.00;63593.47;4829090;29;45404;-79
2022/05/27 06:16:37;;;;;;;;;14.75;11.50;;;;;-143.39;100.00;63593.47;4830632;29;45327;-78
2022/05/27 06:19:03;;;;;;;;;17.50;12.75;;;;;-143.39;100.00;63593.47;4828912;29;46073;-79
2022/05/27 06:21:28;;;;;;;;;13.75;10.00;;;;;-143.39;100.00;63593.47;4829460;29;45365;-79
2022/05/27 06:23:56;;;;;;;;;12.75;10.00;;;;;-143.39;100.00;63593.47;4830522;29;45444;-78
2022/05/27 06:26:22;;;;;;;;;8.75;7.00;;;;;-143.39;100.00;63593.47;4830394;29;45495;-79
2022/05/27 06:34:24;;;;;;;;;6.25;6.25;;;;;-143.39;100.00;63593.47;4829776;29;45418;-78
2022/05/27 06:36:56;;;;;;;;;6.25;4.75;;;;;-143.39;100.00;63593.47;4828568;29;47484;-78
2022/05/27 06:39:23;;;;;;;;;5.50;5.00;;;;;-143.39;100.00;63593.47;4830409;29;45628;-78
2022/05/27 06:41:50;;;;;;;;;5.50;3.00;;;;;-143.39;100.00;63593.47;4830087;29;45306;-78
2022/05/27 06:44:19;;;;;;;;;5.25;4.00;;;;;-143.39;100.00;63593.47;4828796;29;45426;-78
2022/05/27 06:46:46;;;;;;;;;5.50;4.25;;;;;-143.39;100.00;63593.47;4828441;29;47306;-78
2022/05/27 06:49:12;;;;;;;;;5.50;4.75;;;;;-143.39;100.00;63593.47;4829666;29;45283;-78
2022/05/27 06:51:39;;;;;;;;;4.00;3.75;;;;;-143.39;100.00;63593.47;4830002;29;46593;-78
2022/05/27 06:54:06;;;;;;;;;6.00;4.00;;;;;-143.39;100.00;63593.47;4828705;29;45591;-78
2022/05/27 06:56:36;;;;;;;;;7.25;4.75;;;;;-143.39;100.00;63593.47;4843789;29;48032;-78
2022/05/27 06:59:03;;;;;;;;;5.00;4.00;;;;;-143.39;100.00;63593.47;4828662;29;45264;-78
2022/05/27 07:01:29;;;;;;;;;6.00;4.00;;;;;-143.39;100.00;63593.47;4830260;29;45180;-78
2022/05/27 07:03:55;;;;;;;;;5.25;5.25;;;;;-143.39;100.00;63593.47;4829467;29;45389;-78
2022/05/27 07:06:25;;;;;;;;;7.75;5.75;;;;;-143.39;100.00;63593.47;4829910;29;46273;-79
2022/05/27 07:08:51;;;;;;;;;9.00;6.50;;;;;-143.39;100.00;63593.47;4829684;29;45674;-78
2022/05/27 07:11:16;;;;;;;;;5.00;4.00;;;;;-143.39;100.00;63593.47;4829982;29;45285;-78
2022/05/27 07:13:42;;;;;;;;;10.75;5.00;;;;;-143.39;100.00;63593.47;4829627;29;45514;-78
2022/05/27 07:16:07;;;;;;;;;8.25;6.25;;;;;-143.39;100.00;63593.47;4829827;29;45353;-78
2022/05/27 07:18:33;;;;;;;;;12.75;9.00;;;;;-143.39;100.00;63593.47;4827779;29;45350;-79
2022/05/27 07:21:03;;;;;;;;;7.50;6.00;;;;;-143.39;100.00;63593.47;4828630;29;45251;-78
2022/05/27 07:23:29;;;;;;;;;11.50;8.50;;;;;-143.39;100.00;63593.47;4829684;29;45443;-79
2022/05/27 07:25:54;;;;;;;;;8.00;7.25;;;;;-143.39;100.00;63593.47;4829513;29;45458;-78
2022/05/27 07:28:20;;;;;;;;;15.75;10.00;;;;;-143.39;100.00;63593.47;4829368;29;45374;-78
2022/05/27 07:30:45;;;;;;;;;6.25;4.00;;;;;-143.39;100.00;63593.47;4829767;29;45499;-79
2022/05/27 07:33:11;;;;;;;;;9.75;7.00;;;;;-143.39;100.00;63593.47;4833922;29;45596;-78
2022/05/27 07:35:37;;;;;;;;;12.75;9.00;;;;;-143.39;100.00;63593.47;4829580;29;46310;-78
2022/05/27 07:38:03;;;;;;;;;11.00;8.00;;;;;-143.39;100.00;63593.47;4829248;29;45292;-78
2022/05/27 07:40:28;;;;;;;;;8.50;7.00;;;;;-143.39;100.00;63593.47;4829691;29;45240;-78
2022/05/27 07:42:54;;;;;;;;;13.00;8.00;;;;;-143.39;100.00;63593.47;4827990;29;46166;-78
2022/05/27 07:45:26;;;;;;;;;8.25;8.25;;;;;-143.39;100.00;63593.47;4827983;29;47770;-78
2022/05/27 07:47:52;;;;;;;;;11.50;9.25;;;;;-143.39;100.00;63593.47;4828976;29;45509;-79
2022/05/27 07:50:20;;;;;;;;;10.00;9.00;;;;;-143.39;100.00;63593.47;4827977;29;45294;-78
2022/05/27 07:52:45;;;;;;;;;14.00;8.50;;;;;-143.39;100.00;63593.47;4827887;29;45431;-79
2022/05/27 07:55:11;;;;;;;;;15.50;11.25;;;;;-143.39;100.00;63593.47;4827843;29;48024;-79
2022/05/27 07:57:52;;;;;;;;;12.50;8.50;;;;;-143.39;100.00;63593.47;4828894;29;45404;-79
2022/05/27 08:00:23;;;;;;;;;14.50;9.00;;;;;-143.39;100.00;63593.47;4829366;29;45285;-79
2022/05/27 08:02:51;;;;;;;;;10.75;9.00;;;;;-143.39;100.00;63593.47;4828769;29;45497;-79
2022/05/27 08:05:22;;;;;;;;;9.50;8.50;;;;;-143.39;100.00;63593.47;4826805;29;47339;-78
2022/05/27 08:07:48;;;;;;;;;10.25;8.50;;;;;-143.39;100.00;63593.47;4828769;29;45748;-79
2022/05/27 08:10:19;;;;;;;;;12.50;7.75;;;;;-143.39;100.00;63593.47;4827728;29;45328;-79
2022/05/27 08:12:44;;;;;;;;;9.00;7.75;;;;;-143.39;100.00;63593.47;4828989;29;45287;-79
2022/05/27 08:15:12;;;;;;;;;10.75;6.50;;;;;-143.39;100.00;63593.47;4828904;29;45901;-79
2022/05/27 08:17:41;;;;;;;;;12.50;8.00;;;;;-143.39;100.00;63593.47;4827490;29;45402;-79
2022/05/27 08:20:16;;;;;;;;;8.50;7.00;;;;;-143.39;100.00;63593.47;4828835;29;45349;-79
2022/05/27 08:22:44;;;;;;;;;7.00;6.00;;;;;-143.39;100.00;63593.47;4827517;29;45257;-79
2022/05/27 08:25:10;;;;;;;;;10.50;6.25;;;;;-143.39;100.00;63593.47;4828449;29;45414;-79
2022/05/27 08:27:45;;;;;;;;;;;;;;;;;;;;;
2022/05/27 08:30:14;;;;;;;;;8.50;6.75;;;;;-143.39;100.00;63593.47;4827992;29;68776;-79
2022/05/27 08:32:39;;;;;;;;;5.25;4.75;;;;;-143.39;100.00;63593.47;4835061;29;45747;-79
2022/05/27 08:38:03;;;;;;;;;5.00;4.25;;;;;-143.39;100.00;63593.47;4828636;29;45567;-79
2022/05/27 08:40:52;;;;;;;;;8.50;6.00;;;;;-143.39;100.00;63593.47;4817089;29;45320;-79
2022/05/27 08:43:33;;;;;;;;;4.50;4.50;;;;;-143.39;100.00;63593.47;4827384;29;46330;-79
2022/05/27 08:46:01;;;;;;;;;5.25;5.25;;;;;-143.39;100.00;63593.47;4828452;29;45386;-79
2022/05/27 08:48:40;;;;;;;;;5.75;5.75;;;;;-143.39;100.00;63593.47;4827908;29;45582;-79
2022/05/27 08:51:20;;;;;;;;;10.75;5.75;;;;;-143.39;100.00;63593.47;4828635;29;45316;-79
2022/05/27 08:54:07;;;;;;;;;8.50;5.25;;;;;-143.39;100.00;63593.47;4828719;29;45252;-79
2022/05/27 08:59:44;;;;;;;;;5.25;4.50;;;;;-143.39;100.00;63593.47;4830674;29;45423;-79
2022/05/27 09:02:35;;;;;;;;;10.50;6.00;;;;;-143.39;100.00;63593.47;4830527;29;45332;-79
2022/05/27 09:05:03;;;;;;;;;8.00;6.25;;;;;-143.39;100.00;63593.47;4831382;29;45338;-79
2022/05/27 09:07:39;;;;;;;;;9.25;7.00;;;;;-143.39;100.00;63593.47;4830018;29;46308;-79
2022/05/27 09:10:11;;;;;;;;;5.50;5.00;;;;;-143.39;100.00;63593.47;4830264;29;45254;-79
2022/05/27 09:13:00;;;;;;;;;9.00;5.25;;;;;-143.39;100.00;63593.47;4831662;29;45252;-79
2022/05/27 09:15:32;;;;;;;;;7.75;7.25;;;;;-143.39;100.00;63593.47;4830098;29;45577;-79
2022/05/27 09:18:23;;;;;;;;;5.50;4.25;;;;;-143.39;100.00;63593.47;4831258;29;45410;-79
2022/05/27 09:21:22;;;;;;;;;5.75;5.25;;;;;-143.39;100.00;63593.47;4831325;29;45502;-80
2022/05/27 09:24:15;;;;;;;;;5.50;5.25;;;;;-143.39;100.00;63593.47;4813082;29;45430;-79
2022/05/27 09:26:57;;;;;;;;;5.50;4.75;;;;;-143.39;100.00;63593.47;4831344;29;45413;-79
2022/05/27 09:29:54;;;;;;;;;6.50;5.50;;;;;-143.39;100.00;63593.47;4831232;29;45499;-79
2022/05/27 09:32:27;;;;;;;;;4.25;4.00;;;;;-143.39;100.00;63593.47;4836739;29;45577;-79
2022/05/27 09:34:57;;;;;;;;;5.75;3.75;;;;;-143.39;100.00;63593.47;4829588;29;45412;-79
2022/05/27 09:37:27;;;;;;;;;5.75;4.00;;;;;-143.39;100.00;63593.47;4829946;29;45299;-79
2022/05/27 09:40:00;;;;;;;;;4.00;4.00;;;;;-143.39;100.00;63593.47;4829632;29;47166;-79
2022/05/27 09:42:38;;;;;;;;;5.25;4.50;;;;;-143.39;100.00;63593.47;4829885;29;45265;-79
2022/05/27 09:45:06;;;;;;;;;8.00;4.50;;;;;-143.39;100.00;63593.47;4831299;29;45324;-79
2022/05/27 09:47:34;;;;;;;;;5.75;4.50;;;;;-143.39;100.00;63593.47;4829656;29;45530;-79
2022/05/27 09:50:21;;;;;;;;;6.00;3.50;;;;;-143.39;100.00;63593.47;4830636;29;46300;-79
2022/05/27 09:52:48;;;;;;;;;4.00;4.00;;;;;-143.39;100.00;63593.47;4831010;29;45478;-79
2022/05/27 09:55:35;;;;;;;;;10.00;6.00;;;;;-143.39;100.00;63593.47;4845177;29;45384;-79
2022/05/27 09:58:11;;;;;;;;;8.25;4.00;;;;;-143.39;100.00;63593.47;4829869;29;45420;-79
2022/05/27 10:00:49;;;;;;;;;9.25;4.75;;;;;-143.39;100.00;63593.47;4830862;29;45369;-79
2022/05/27 10:03:37;;;;;;;;;10.50;6.25;;;;;-143.39;100.00;63593.47;4830457;29;45241;-79
2022/05/27 10:06:10;;;;;;;;;5.75;5.25;;;;;-143.39;100.00;63593.47;4830919;29;45439;-79
2022/05/27 10:09:00;;;;;;;;;10.00;7.00;;;;;-143.39;100.00;63593.47;4830727;29;45251;-79
2022/05/27 10:11:27;;;;;;;;;4.00;4.00;;;;;-143.39;100.00;63593.47;4829769;29;46547;-79
2022/05/27 10:14:28;;;;;;;;;6.75;4.00;;;;;-143.39;100.00;63593.47;4829283;29;45268;-79
2022/05/27 10:17:10;;;;;;;;;4.75;4.50;;;;;-143.39;100.00;63593.47;4829352;29;45547;-79
2022/05/27 10:19:42;;;;;;;;;6.00;5.25;;;;;-143.39;100.00;63593.47;4830237;29;45340;-79
2022/05/27 10:22:29;;;;;;;;;5.00;4.00;;;;;-143.39;100.00;63593.47;4830657;29;46211;-79
2022/05/27 10:25:02;;;;;;;;;4.00;4.00;;;;;-143.39;100.00;63593.47;4829278;29;45302;-79
2022/05/27 10:27:41;;;;;;;;;5.00;5.00;;;;;-143.39;100.00;63593.47;4830351;29;45328;-79
2022/05/27 10:30:25;;;;;;;;;6.50;5.00;;;;;-143.39;100.00;63593.47;4829060;29;45498;-79
2022/05/27 10:32:51;;;;;;;;;5.00;5.00;;;;;-143.39;100.00;63593.47;4828822;29;47130;-80
2022/05/27 10:35:26;;;;;;;;;8.00;4.00;;;;;-143.39;100.00;63593.47;4828760;29;45522;-80
2022/05/27 10:38:07;;;;;;;;;7.00;4.50;;;;;-143.39;100.00;63593.47;4830377;29;45533;-80
2022/05/27 10:40:45;;;;;;;;;3.00;3.00;;;;;-143.39;100.00;63593.47;4817507;29;45411;-79
2022/05/27 10:43:55;;;;;;;;;3.75;3.75;;;;;-143.39;100.00;63593.47;4828911;29;48065;-80
2022/05/27 10:46:30;;;;;;;;;4.75;4.75;;;;;-143.39;100.00;63593.47;4830132;29;45403;-80
2022/05/27 10:49:24;;;;;;;;;5.50;4.00;;;;;-143.39;100.00;63593.47;4828633;29;45395;-79
2022/05/27 10:52:22;;;;;;;;;5.00;3.50;;;;;-143.39;100.00;63593.47;4828877;29;45544;-80
2022/05/27 10:55:14;;;;;;;;;;;;;;;;;;;;;
2022/05/27 11:04:14;;;;;;;;;5.00;5.00;;;;;-143.39;100.00;63593.47;4829613;29;45415;-79
2022/05/27 11:07:18;;;;;;;;;5.00;3.75;;;;;-143.39;100.00;63593.47;4829938;29;45409;-80
2022/05/27 11:10:10;;;;;;;;;4.50;3.00;;;;;-143.39;100.00;63593.47;4798744;29;45347;-80
2022/05/27 11:15:59;;;;;;;;;;;;;;;;;;;;;
2022/05/27 11:18:47;;;;;;;;;7.50;4.75;;;;;-143.39;100.00;63593.47;4828510;29;74564;-79
2022/05/27 11:21:44;;;;;;;;;;;;;;;;;;;;;
2022/05/27 11:24:30;;;;;;;;;6.25;5.50;;;;;-143.39;100.00;63593.47;4828859;29;68114;-80
2022/05/27 11:27:17;;;;;;;;;6.75;6.25;;;;;-143.39;100.00;63593.47;4828663;29;45658;-80
2022/05/27 11:30:11;;;;;;;;;;;;;;;;;;;;;
2022/05/27 11:33:07;;;;;;;;;;;;;;;;;;;;;
2022/05/27 11:36:11;;;;;;;;;;;;;;;;;;;;;
2022/05/27 11:38:43;;;;;;;;;5.75;5.75;;;;;-143.39;100.00;63593.47;4828553;29;72979;-80
2022/05/27 11:41:15;;;;;;;;;5.00;5.00;;;;;-143.39;100.00;63593.47;4828021;29;46423;-80
2022/05/27 11:43:52;;;;;;;;;5.00;5.00;;;;;-143.39;100.00;63593.47;4829293;29;45611;-80
2022/05/27 11:46:22;;;;;;;;;4.00;4.00;;;;;-143.39;100.00;63593.47;4829433;29;45274;-80
2022/05/27 11:48:58;;;;;;;;;6.00;6.00;;;;;-143.39;100.00;63593.47;4828951;29;45469;-79
2022/05/27 11:52:15;;;;;;;;;;;;;;;;;;;;;
2022/05/27 11:54:55;;;;;;;;;7.50;6.25;;;;;-143.39;100.00;63593.47;4828077;29;73078;-80
2022/05/27 12:02:47;;;;;;;;;4.00;4.00;;;;;-143.39;100.00;63593.47;4883415;29;45364;-80
2022/05/27 12:05:34;;;;;;;;;;;;;;;;;;;;;
2022/05/27 12:08:19;;;;;;;;;;;;;;;;;;;;;
2022/05/27 12:11:53;;;;;;;;;5.00;3.00;;;;;-143.39;100.00;63593.47;4902780;29;72809;-78
2022/05/27 12:14:36;;;;;;;;;;;;;;;;;;;;;
